sensor_id;sensor_type;location;lat;lon;timestamp;P1;durP1;ratioP1;P2;durP2;ratioP2
35522;SDS011;61478;50.820;4.330;2023-05-07T00:01:26;8.90;;;3.22;;
35522;SDS011;61478;50.820;4.330;2023-05-07T00:03:52;8.60;;;2.70;;
35522;SDS011;61478;50.820;4.330;2023-05-07T00:06:19;13.52;;;4.35;;
35522;SDS011;61478;50.820;4.330;2023-05-07T00:08:48;11.93;;;4.07;;
35522;SDS011;61478;50.820;4.330;2023-05-07T00:11:14;15.07;;;3.53;;
35522;SDS011;61478;50.820;4.330;2023-05-07T00:13:44;10.40;;;3.00;;
35522;SDS011;61478;50.820;4.330;2023-05-07T00:16:09;9.32;;;2.75;;
35522;SDS011;61478;50.820;4.330;2023-05-07T00:18:35;22.35;;;3.80;;
35522;SDS011;61478;50.820;4.330;2023-05-07T00:21:01;12.60;;;2.92;;
35522;SDS011;61478;50.820;4.330;2023-05-07T00:23:27;10.68;;;2.97;;
35522;SDS011;61478;50.820;4.330;2023-05-07T00:25:53;12.00;;;3.10;;
35522;SDS011;61478;50.820;4.330;2023-05-07T00:28:21;13.93;;;3.38;;
35522;SDS011;61478;50.820;4.330;2023-05-07T00:30:47;10.07;;;2.88;;
35522;SDS011;61478;50.820;4.330;2023-05-07T00:33:13;10.05;;;3.47;;
35522;SDS011;61478;50.820;4.330;2023-05-07T00:35:39;10.27;;;3.20;;
35522;SDS011;61478;50.820;4.330;2023-05-07T00:38:04;8.55;;;2.75;;
35522;SDS011;61478;50.820;4.330;2023-05-07T00:40:30;8.50;;;3.67;;
35522;SDS011;61478;50.820;4.330;2023-05-07T00:42:57;15.73;;;3.28;;
35522;SDS011;61478;50.820;4.330;2023-05-07T00:45:24;8.80;;;2.85;;
35522;SDS011;61478;50.820;4.330;2023-05-07T00:47:55;9.63;;;2.60;;
35522;SDS011;61478;50.820;4.330;2023-05-07T00:50:27;16.98;;;4.25;;
35522;SDS011;61478;50.820;4.330;2023-05-07T00:52:54;8.77;;;3.08;;
35522;SDS011;61478;50.820;4.330;2023-05-07T00:55:21;14.40;;;3.42;;
35522;SDS011;61478;50.820;4.330;2023-05-07T00:57:48;9.70;;;2.80;;
35522;SDS011;61478;50.820;4.330;2023-05-07T01:00:16;10.57;;;2.80;;
35522;SDS011;61478;50.820;4.330;2023-05-07T01:02:43;7.90;;;2.92;;
35522;SDS011;61478;50.820;4.330;2023-05-07T01:05:10;10.13;;;3.55;;
35522;SDS011;61478;50.820;4.330;2023-05-07T01:07:38;10.75;;;3.13;;
35522;SDS011;61478;50.820;4.330;2023-05-07T01:10:06;12.65;;;3.17;;
35522;SDS011;61478;50.820;4.330;2023-05-07T01:12:33;8.57;;;2.63;;
35522;SDS011;61478;50.820;4.330;2023-05-07T01:15:01;12.32;;;3.53;;
35522;SDS011;61478;50.820;4.330;2023-05-07T01:17:34;11.75;;;3.40;;
35522;SDS011;61478;50.820;4.330;2023-05-07T01:20:04;11.23;;;3.25;;
35522;SDS011;61478;50.820;4.330;2023-05-07T01:22:35;12.45;;;2.72;;
35522;SDS011;61478;50.820;4.330;2023-05-07T01:25:07;9.98;;;2.92;;
35522;SDS011;61478;50.820;4.330;2023-05-07T01:27:33;10.85;;;4.00;;
35522;SDS011;61478;50.820;4.330;2023-05-07T01:30:03;19.63;;;3.63;;
35522;SDS011;61478;50.820;4.330;2023-05-07T01:32:35;14.80;;;3.45;;
35522;SDS011;61478;50.820;4.330;2023-05-07T01:35:09;10.60;;;2.88;;
35522;SDS011;61478;50.820;4.330;2023-05-07T01:37:37;6.03;;;2.45;;
35522;SDS011;61478;50.820;4.330;2023-05-07T01:40:04;11.38;;;2.90;;
35522;SDS011;61478;50.820;4.330;2023-05-07T01:42:32;13.38;;;3.72;;
35522;SDS011;61478;50.820;4.330;2023-05-07T01:44:58;9.70;;;3.25;;
35522;SDS011;61478;50.820;4.330;2023-05-07T01:47:24;10.02;;;3.33;;
35522;SDS011;61478;50.820;4.330;2023-05-07T01:49:51;8.50;;;3.30;;
35522;SDS011;61478;50.820;4.330;2023-05-07T01:52:23;6.75;;;3.15;;
35522;SDS011;61478;50.820;4.330;2023-05-07T01:54:53;8.02;;;3.05;;
35522;SDS011;61478;50.820;4.330;2023-05-07T01:57:19;10.40;;;3.08;;
35522;SDS011;61478;50.820;4.330;2023-05-07T01:59:58;13.00;;;3.45;;
35522;SDS011;61478;50.820;4.330;2023-05-07T02:02:28;10.48;;;3.22;;
35522;SDS011;61478;50.820;4.330;2023-05-07T02:04:57;11.95;;;3.42;;
35522;SDS011;61478;50.820;4.330;2023-05-07T02:07:23;14.23;;;3.95;;
35522;SDS011;61478;50.820;4.330;2023-05-07T02:09:50;8.05;;;3.20;;
35522;SDS011;61478;50.820;4.330;2023-05-07T02:12:21;14.38;;;3.75;;
35522;SDS011;61478;50.820;4.330;2023-05-07T02:14:54;13.50;;;3.55;;
35522;SDS011;61478;50.820;4.330;2023-05-07T02:17:20;14.18;;;3.03;;
35522;SDS011;61478;50.820;4.330;2023-05-07T02:19:46;8.45;;;2.72;;
35522;SDS011;61478;50.820;4.330;2023-05-07T02:22:16;7.65;;;3.33;;
35522;SDS011;61478;50.820;4.330;2023-05-07T02:24:47;15.18;;;3.10;;
35522;SDS011;61478;50.820;4.330;2023-05-07T02:27:14;9.60;;;3.33;;
35522;SDS011;61478;50.820;4.330;2023-05-07T02:29:40;14.82;;;3.78;;
35522;SDS011;61478;50.820;4.330;2023-05-07T02:32:11;11.27;;;3.22;;
35522;SDS011;61478;50.820;4.330;2023-05-07T02:34:37;10.55;;;3.60;;
35522;SDS011;61478;50.820;4.330;2023-05-07T02:37:03;10.82;;;3.30;;
35522;SDS011;61478;50.820;4.330;2023-05-07T02:39:29;9.02;;;3.35;;
35522;SDS011;61478;50.820;4.330;2023-05-07T02:41:55;13.07;;;3.65;;
35522;SDS011;61478;50.820;4.330;2023-05-07T02:44:21;11.70;;;3.30;;
35522;SDS011;61478;50.820;4.330;2023-05-07T02:46:46;7.22;;;2.95;;
35522;SDS011;61478;50.820;4.330;2023-05-07T02:49:15;11.02;;;3.30;;
35522;SDS011;61478;50.820;4.330;2023-05-07T02:51:42;13.55;;;4.07;;
35522;SDS011;61478;50.820;4.330;2023-05-07T02:54:08;14.65;;;3.88;;
35522;SDS011;61478;50.820;4.330;2023-05-07T02:56:40;7.20;;;3.00;;
35522;SDS011;61478;50.820;4.330;2023-05-07T02:59:09;9.23;;;3.25;;
35522;SDS011;61478;50.820;4.330;2023-05-07T03:01:36;9.18;;;3.45;;
35522;SDS011;61478;50.820;4.330;2023-05-07T03:04:02;9.02;;;3.45;;
35522;SDS011;61478;50.820;4.330;2023-05-07T03:06:28;10.75;;;3.80;;
35522;SDS011;61478;50.820;4.330;2023-05-07T03:08:58;12.45;;;4.03;;
35522;SDS011;61478;50.820;4.330;2023-05-07T03:11:27;15.15;;;4.18;;
35522;SDS011;61478;50.820;4.330;2023-05-07T03:13:53;8.18;;;3.30;;
35522;SDS011;61478;50.820;4.330;2023-05-07T03:16:20;10.77;;;3.28;;
35522;SDS011;61478;50.820;4.330;2023-05-07T03:18:46;12.50;;;3.60;;
35522;SDS011;61478;50.820;4.330;2023-05-07T03:21:13;7.22;;;2.83;;
35522;SDS011;61478;50.820;4.330;2023-05-07T03:23:39;12.85;;;3.08;;
35522;SDS011;61478;50.820;4.330;2023-05-07T03:26:08;11.77;;;3.42;;
35522;SDS011;61478;50.820;4.330;2023-05-07T03:28:35;9.10;;;4.03;;
35522;SDS011;61478;50.820;4.330;2023-05-07T03:31:09;8.93;;;2.75;;
35522;SDS011;61478;50.820;4.330;2023-05-07T03:33:47;7.78;;;2.88;;
35522;SDS011;61478;50.820;4.330;2023-05-07T03:36:24;12.57;;;3.38;;
35522;SDS011;61478;50.820;4.330;2023-05-07T03:38:51;13.70;;;3.10;;
35522;SDS011;61478;50.820;4.330;2023-05-07T03:41:18;15.98;;;3.50;;
35522;SDS011;61478;50.820;4.330;2023-05-07T03:43:44;10.63;;;3.50;;
35522;SDS011;61478;50.820;4.330;2023-05-07T03:46:10;11.50;;;3.35;;
35522;SDS011;61478;50.820;4.330;2023-05-07T03:48:36;9.88;;;3.38;;
35522;SDS011;61478;50.820;4.330;2023-05-07T03:51:01;7.45;;;3.15;;
35522;SDS011;61478;50.820;4.330;2023-05-07T03:53:27;11.75;;;3.85;;
35522;SDS011;61478;50.820;4.330;2023-05-07T03:55:53;7.55;;;3.20;;
35522;SDS011;61478;50.820;4.330;2023-05-07T03:58:20;10.43;;;4.07;;
35522;SDS011;61478;50.820;4.330;2023-05-07T04:00:46;14.00;;;3.65;;
35522;SDS011;61478;50.820;4.330;2023-05-07T04:03:12;14.82;;;3.63;;
35522;SDS011;61478;50.820;4.330;2023-05-07T04:05:39;11.02;;;3.55;;
35522;SDS011;61478;50.820;4.330;2023-05-07T04:08:15;10.27;;;2.95;;
35522;SDS011;61478;50.820;4.330;2023-05-07T04:10:44;15.73;;;3.60;;
35522;SDS011;61478;50.820;4.330;2023-05-07T04:13:10;13.05;;;3.72;;
35522;SDS011;61478;50.820;4.330;2023-05-07T04:15:36;11.25;;;3.45;;
35522;SDS011;61478;50.820;4.330;2023-05-07T04:18:02;8.18;;;3.05;;
35522;SDS011;61478;50.820;4.330;2023-05-07T04:20:28;13.80;;;3.13;;
35522;SDS011;61478;50.820;4.330;2023-05-07T04:22:54;9.85;;;4.30;;
35522;SDS011;61478;50.820;4.330;2023-05-07T04:25:20;8.48;;;3.45;;
35522;SDS011;61478;50.820;4.330;2023-05-07T04:27:51;15.07;;;4.68;;
35522;SDS011;61478;50.820;4.330;2023-05-07T04:30:18;14.63;;;3.85;;
35522;SDS011;61478;50.820;4.330;2023-05-07T04:32:44;8.30;;;2.88;;
35522;SDS011;61478;50.820;4.330;2023-05-07T04:35:10;14.05;;;3.13;;
35522;SDS011;61478;50.820;4.330;2023-05-07T04:37:38;10.63;;;3.05;;
35522;SDS011;61478;50.820;4.330;2023-05-07T04:40:05;12.15;;;3.00;;
35522;SDS011;61478;50.820;4.330;2023-05-07T04:42:35;10.10;;;3.17;;
35522;SDS011;61478;50.820;4.330;2023-05-07T04:45:01;8.70;;;3.38;;
35522;SDS011;61478;50.820;4.330;2023-05-07T04:47:27;12.60;;;2.90;;
35522;SDS011;61478;50.820;4.330;2023-05-07T04:49:53;9.63;;;3.22;;
35522;SDS011;61478;50.820;4.330;2023-05-07T04:52:19;12.38;;;3.83;;
35522;SDS011;61478;50.820;4.330;2023-05-07T04:54:45;11.35;;;3.47;;
35522;SDS011;61478;50.820;4.330;2023-05-07T04:57:11;11.80;;;3.90;;
35522;SDS011;61478;50.820;4.330;2023-05-07T04:59:37;14.60;;;4.13;;
35522;SDS011;61478;50.820;4.330;2023-05-07T05:02:04;12.00;;;3.33;;
35522;SDS011;61478;50.820;4.330;2023-05-07T05:04:33;9.07;;;3.45;;
35522;SDS011;61478;50.820;4.330;2023-05-07T05:07:02;16.50;;;4.28;;
35522;SDS011;61478;50.820;4.330;2023-05-07T05:09:31;11.55;;;4.35;;
35522;SDS011;61478;50.820;4.330;2023-05-07T05:11:58;11.30;;;3.92;;
35522;SDS011;61478;50.820;4.330;2023-05-07T05:14:24;14.20;;;3.20;;
35522;SDS011;61478;50.820;4.330;2023-05-07T05:16:51;11.00;;;3.50;;
35522;SDS011;61478;50.820;4.330;2023-05-07T05:19:20;7.25;;;2.85;;
35522;SDS011;61478;50.820;4.330;2023-05-07T05:21:52;10.95;;;3.75;;
35522;SDS011;61478;50.820;4.330;2023-05-07T05:24:21;8.95;;;3.15;;
35522;SDS011;61478;50.820;4.330;2023-05-07T05:26:48;11.98;;;3.58;;
35522;SDS011;61478;50.820;4.330;2023-05-07T05:29:17;9.57;;;3.40;;
35522;SDS011;61478;50.820;4.330;2023-05-07T05:31:46;9.30;;;3.13;;
35522;SDS011;61478;50.820;4.330;2023-05-07T05:34:13;11.82;;;3.30;;
35522;SDS011;61478;50.820;4.330;2023-05-07T05:36:42;11.27;;;3.03;;
35522;SDS011;61478;50.820;4.330;2023-05-07T05:39:12;7.85;;;2.72;;
35522;SDS011;61478;50.820;4.330;2023-05-07T05:41:39;14.05;;;3.22;;
35522;SDS011;61478;50.820;4.330;2023-05-07T05:44:05;12.68;;;3.55;;
35522;SDS011;61478;50.820;4.330;2023-05-07T05:46:37;12.27;;;3.25;;
35522;SDS011;61478;50.820;4.330;2023-05-07T05:49:06;11.20;;;3.47;;
35522;SDS011;61478;50.820;4.330;2023-05-07T05:51:38;8.32;;;4.15;;
35522;SDS011;61478;50.820;4.330;2023-05-07T05:54:08;15.45;;;4.50;;
35522;SDS011;61478;50.820;4.330;2023-05-07T05:56:37;16.08;;;5.57;;
35522;SDS011;61478;50.820;4.330;2023-05-07T05:59:03;12.48;;;5.40;;
35522;SDS011;61478;50.820;4.330;2023-05-07T06:01:33;12.27;;;5.20;;
35522;SDS011;61478;50.820;4.330;2023-05-07T06:04:03;10.77;;;4.80;;
35522;SDS011;61478;50.820;4.330;2023-05-07T06:06:32;14.18;;;5.70;;
35522;SDS011;61478;50.820;4.330;2023-05-07T06:08:58;13.20;;;6.03;;
35522;SDS011;61478;50.820;4.330;2023-05-07T06:11:25;13.48;;;6.20;;
35522;SDS011;61478;50.820;4.330;2023-05-07T06:13:54;13.45;;;5.97;;
35522;SDS011;61478;50.820;4.330;2023-05-07T06:16:21;13.38;;;6.40;;
35522;SDS011;61478;50.820;4.330;2023-05-07T06:18:47;17.38;;;6.68;;
35522;SDS011;61478;50.820;4.330;2023-05-07T06:21:16;15.75;;;6.50;;
35522;SDS011;61478;50.820;4.330;2023-05-07T06:23:43;17.13;;;6.15;;
35522;SDS011;61478;50.820;4.330;2023-05-07T06:26:11;17.27;;;6.80;;
35522;SDS011;61478;50.820;4.330;2023-05-07T06:28:37;15.60;;;6.70;;
35522;SDS011;61478;50.820;4.330;2023-05-07T06:33:45;16.30;;;6.35;;
35522;SDS011;61478;50.820;4.330;2023-05-07T06:36:12;11.85;;;5.22;;
35522;SDS011;61478;50.820;4.330;2023-05-07T06:38:38;19.13;;;6.00;;
35522;SDS011;61478;50.820;4.330;2023-05-07T06:41:05;14.30;;;5.35;;
35522;SDS011;61478;50.820;4.330;2023-05-07T06:43:37;10.23;;;5.20;;
35522;SDS011;61478;50.820;4.330;2023-05-07T06:46:06;18.83;;;6.75;;
35522;SDS011;61478;50.820;4.330;2023-05-07T06:48:32;13.80;;;5.38;;
35522;SDS011;61478;50.820;4.330;2023-05-07T06:50:58;14.15;;;5.80;;
35522;SDS011;61478;50.820;4.330;2023-05-07T06:53:24;13.30;;;6.70;;
35522;SDS011;61478;50.820;4.330;2023-05-07T06:55:50;14.10;;;6.03;;
35522;SDS011;61478;50.820;4.330;2023-05-07T06:58:17;13.43;;;6.20;;
35522;SDS011;61478;50.820;4.330;2023-05-07T07:00:43;16.13;;;6.28;;
35522;SDS011;61478;50.820;4.330;2023-05-07T07:03:09;15.88;;;6.78;;
35522;SDS011;61478;50.820;4.330;2023-05-07T07:05:35;13.43;;;5.93;;
35522;SDS011;61478;50.820;4.330;2023-05-07T07:08:01;12.25;;;6.00;;
35522;SDS011;61478;50.820;4.330;2023-05-07T07:10:30;15.88;;;5.97;;
35522;SDS011;61478;50.820;4.330;2023-05-07T07:12:56;21.15;;;6.38;;
35522;SDS011;61478;50.820;4.330;2023-05-07T07:15:22;16.95;;;6.63;;
35522;SDS011;61478;50.820;4.330;2023-05-07T07:17:50;12.25;;;6.53;;
35522;SDS011;61478;50.820;4.330;2023-05-07T07:20:19;13.77;;;6.30;;
35522;SDS011;61478;50.820;4.330;2023-05-07T07:22:45;13.57;;;6.63;;
35522;SDS011;61478;50.820;4.330;2023-05-07T07:25:11;14.32;;;6.93;;
35522;SDS011;61478;50.820;4.330;2023-05-07T07:27:37;14.38;;;5.90;;
35522;SDS011;61478;50.820;4.330;2023-05-07T07:30:05;14.65;;;6.10;;
35522;SDS011;61478;50.820;4.330;2023-05-07T07:32:37;9.23;;;6.15;;
35522;SDS011;61478;50.820;4.330;2023-05-07T07:35:03;9.32;;;5.65;;
35522;SDS011;61478;50.820;4.330;2023-05-07T07:37:30;18.38;;;6.82;;
35522;SDS011;61478;50.820;4.330;2023-05-07T07:39:56;9.90;;;6.28;;
35522;SDS011;61478;50.820;4.330;2023-05-07T07:42:22;15.13;;;6.18;;
35522;SDS011;61478;50.820;4.330;2023-05-07T07:44:48;20.48;;;6.18;;
35522;SDS011;61478;50.820;4.330;2023-05-07T07:47:14;17.98;;;7.57;;
35522;SDS011;61478;50.820;4.330;2023-05-07T07:49:40;11.85;;;5.50;;
35522;SDS011;61478;50.820;4.330;2023-05-07T07:52:06;18.67;;;6.22;;
35522;SDS011;61478;50.820;4.330;2023-05-07T07:54:32;10.90;;;5.72;;
35522;SDS011;61478;50.820;4.330;2023-05-07T07:56:58;15.77;;;6.53;;
35522;SDS011;61478;50.820;4.330;2023-05-07T07:59:24;13.88;;;6.15;;
35522;SDS011;61478;50.820;4.330;2023-05-07T08:01:50;13.45;;;5.40;;
35522;SDS011;61478;50.820;4.330;2023-05-07T08:04:17;14.88;;;6.05;;
35522;SDS011;61478;50.820;4.330;2023-05-07T08:06:43;18.05;;;6.57;;
35522;SDS011;61478;50.820;4.330;2023-05-07T08:09:11;15.93;;;6.07;;
35522;SDS011;61478;50.820;4.330;2023-05-07T08:11:38;11.18;;;5.25;;
35522;SDS011;61478;50.820;4.330;2023-05-07T08:14:04;15.40;;;6.13;;
35522;SDS011;61478;50.820;4.330;2023-05-07T08:16:30;11.65;;;6.00;;
35522;SDS011;61478;50.820;4.330;2023-05-07T08:18:56;13.65;;;6.22;;
35522;SDS011;61478;50.820;4.330;2023-05-07T08:21:22;11.48;;;5.78;;
35522;SDS011;61478;50.820;4.330;2023-05-07T08:23:48;12.82;;;5.82;;
35522;SDS011;61478;50.820;4.330;2023-05-07T08:26:14;13.50;;;5.65;;
35522;SDS011;61478;50.820;4.330;2023-05-07T08:28:40;14.85;;;5.88;;
35522;SDS011;61478;50.820;4.330;2023-05-07T08:31:06;14.38;;;5.65;;
35522;SDS011;61478;50.820;4.330;2023-05-07T08:33:32;10.82;;;6.00;;
35522;SDS011;61478;50.820;4.330;2023-05-07T08:35:58;11.32;;;6.18;;
35522;SDS011;61478;50.820;4.330;2023-05-07T08:38:24;10.57;;;5.95;;
35522;SDS011;61478;50.820;4.330;2023-05-07T08:40:50;12.82;;;5.43;;
35522;SDS011;61478;50.820;4.330;2023-05-07T08:43:16;16.25;;;7.05;;
35522;SDS011;61478;50.820;4.330;2023-05-07T08:45:44;10.45;;;5.90;;
35522;SDS011;61478;50.820;4.330;2023-05-07T08:48:17;9.75;;;5.80;;
35522;SDS011;61478;50.820;4.330;2023-05-07T08:50:43;13.73;;;5.72;;
35522;SDS011;61478;50.820;4.330;2023-05-07T08:53:09;14.85;;;6.03;;
35522;SDS011;61478;50.820;4.330;2023-05-07T08:55:35;13.63;;;6.00;;
35522;SDS011;61478;50.820;4.330;2023-05-07T08:58:01;10.32;;;5.40;;
35522;SDS011;61478;50.820;4.330;2023-05-07T09:00:27;10.63;;;5.75;;
35522;SDS011;61478;50.820;4.330;2023-05-07T09:02:53;7.57;;;5.38;;
35522;SDS011;61478;50.820;4.330;2023-05-07T09:05:19;19.52;;;6.47;;
35522;SDS011;61478;50.820;4.330;2023-05-07T09:07:45;14.25;;;6.22;;
35522;SDS011;61478;50.820;4.330;2023-05-07T09:10:12;13.98;;;4.78;;
35522;SDS011;61478;50.820;4.330;2023-05-07T09:12:38;12.05;;;4.90;;
35522;SDS011;61478;50.820;4.330;2023-05-07T09:15:05;8.70;;;4.40;;
35522;SDS011;61478;50.820;4.330;2023-05-07T09:17:31;9.20;;;4.25;;
35522;SDS011;61478;50.820;4.330;2023-05-07T09:20:04;12.25;;;4.55;;
35522;SDS011;61478;50.820;4.330;2023-05-07T09:22:32;9.43;;;4.60;;
35522;SDS011;61478;50.820;4.330;2023-05-07T09:24:58;12.07;;;4.25;;
35522;SDS011;61478;50.820;4.330;2023-05-07T09:27:24;9.18;;;4.30;;
35522;SDS011;61478;50.820;4.330;2023-05-07T09:29:51;13.05;;;5.35;;
35522;SDS011;61478;50.820;4.330;2023-05-07T09:32:17;8.02;;;4.35;;
35522;SDS011;61478;50.820;4.330;2023-05-07T09:34:43;9.27;;;5.03;;
35522;SDS011;61478;50.820;4.330;2023-05-07T09:37:10;8.70;;;3.80;;
35522;SDS011;61478;50.820;4.330;2023-05-07T09:39:38;12.20;;;4.25;;
35522;SDS011;61478;50.820;4.330;2023-05-07T09:42:08;8.93;;;4.35;;
35522;SDS011;61478;50.820;4.330;2023-05-07T09:44:35;12.10;;;4.45;;
35522;SDS011;61478;50.820;4.330;2023-05-07T09:47:10;12.13;;;4.78;;
35522;SDS011;61478;50.820;4.330;2023-05-07T09:49:43;8.90;;;4.60;;
35522;SDS011;61478;50.820;4.330;2023-05-07T09:52:13;9.55;;;4.80;;
35522;SDS011;61478;50.820;4.330;2023-05-07T09:54:39;8.77;;;4.28;;
35522;SDS011;61478;50.820;4.330;2023-05-07T09:57:10;9.00;;;4.78;;
35522;SDS011;61478;50.820;4.330;2023-05-07T09:59:38;10.52;;;4.60;;
35522;SDS011;61478;50.820;4.330;2023-05-07T10:02:08;9.50;;;4.15;;
35522;SDS011;61478;50.820;4.330;2023-05-07T10:04:35;9.52;;;4.10;;
35522;SDS011;61478;50.820;4.330;2023-05-07T10:07:02;8.85;;;4.35;;
35522;SDS011;61478;50.820;4.330;2023-05-07T10:09:29;8.82;;;4.90;;
35522;SDS011;61478;50.820;4.330;2023-05-07T10:11:57;8.82;;;5.07;;
35522;SDS011;61478;50.820;4.330;2023-05-07T10:14:24;11.98;;;5.07;;
35522;SDS011;61478;50.820;4.330;2023-05-07T10:16:53;11.45;;;5.43;;
35522;SDS011;61478;50.820;4.330;2023-05-07T10:19:19;11.48;;;5.63;;
35522;SDS011;61478;50.820;4.330;2023-05-07T10:21:54;13.55;;;5.85;;
35522;SDS011;61478;50.820;4.330;2023-05-07T10:24:25;9.75;;;5.32;;
35522;SDS011;61478;50.820;4.330;2023-05-07T10:26:54;13.70;;;6.03;;
35522;SDS011;61478;50.820;4.330;2023-05-07T10:34:29;16.42;;;6.72;;
35522;SDS011;61478;50.820;4.330;2023-05-07T10:37:01;10.57;;;5.07;;
35522;SDS011;61478;50.820;4.330;2023-05-07T10:39:28;13.10;;;5.25;;
35522;SDS011;61478;50.820;4.330;2023-05-07T10:41:55;5.78;;;3.67;;
35522;SDS011;61478;50.820;4.330;2023-05-07T10:44:27;11.80;;;5.90;;
35522;SDS011;61478;50.820;4.330;2023-05-07T10:47:07;8.27;;;4.10;;
35522;SDS011;61478;50.820;4.330;2023-05-07T10:49:35;10.18;;;4.18;;
35522;SDS011;61478;50.820;4.330;2023-05-07T10:52:22;7.70;;;4.13;;
35522;SDS011;61478;50.820;4.330;2023-05-07T10:57:42;10.13;;;4.10;;
35522;SDS011;61478;50.820;4.330;2023-05-07T11:05:33;8.93;;;3.60;;
35522;SDS011;61478;50.820;4.330;2023-05-07T11:08:03;9.95;;;3.00;;
35522;SDS011;61478;50.820;4.330;2023-05-07T11:16:23;5.80;;;2.35;;
35522;SDS011;61478;50.820;4.330;2023-05-07T11:18:54;12.70;;;3.13;;
35522;SDS011;61478;50.820;4.330;2023-05-07T11:21:41;5.85;;;3.78;;
35522;SDS011;61478;50.820;4.330;2023-05-07T11:24:10;9.85;;;4.00;;
35522;SDS011;61478;50.820;4.330;2023-05-07T11:26:48;6.10;;;3.70;;
35522;SDS011;61478;50.820;4.330;2023-05-07T11:31:41;12.85;;;5.00;;
35522;SDS011;61478;50.820;4.330;2023-05-07T11:34:07;7.32;;;3.83;;
35522;SDS011;61478;50.820;4.330;2023-05-07T11:36:34;6.38;;;4.40;;
35522;SDS011;61478;50.820;4.330;2023-05-07T11:39:20;12.40;;;5.13;;
35522;SDS011;61478;50.820;4.330;2023-05-07T11:41:48;12.85;;;5.10;;
35522;SDS011;61478;50.820;4.330;2023-05-07T11:44:14;8.57;;;4.70;;
35522;SDS011;61478;50.820;4.330;2023-05-07T11:46:42;8.95;;;3.70;;
35522;SDS011;61478;50.820;4.330;2023-05-07T11:49:09;6.80;;;3.95;;
35522;SDS011;61478;50.820;4.330;2023-05-07T11:51:35;7.18;;;3.42;;
35522;SDS011;61478;50.820;4.330;2023-05-07T11:54:03;6.00;;;3.15;;
35522;SDS011;61478;50.820;4.330;2023-05-07T11:56:33;9.98;;;4.05;;
35522;SDS011;61478;50.820;4.330;2023-05-07T11:59:00;6.72;;;3.42;;
35522;SDS011;61478;50.820;4.330;2023-05-07T12:01:26;8.90;;;3.45;;
35522;SDS011;61478;50.820;4.330;2023-05-07T12:03:52;4.60;;;3.17;;
35522;SDS011;61478;50.820;4.330;2023-05-07T12:06:18;8.18;;;3.50;;
35522;SDS011;61478;50.820;4.330;2023-05-07T12:08:44;6.72;;;3.10;;
35522;SDS011;61478;50.820;4.330;2023-05-07T12:11:16;5.43;;;3.30;;
35522;SDS011;61478;50.820;4.330;2023-05-07T12:13:48;4.70;;;2.85;;
35522;SDS011;61478;50.820;4.330;2023-05-07T12:16:14;10.95;;;4.95;;
35522;SDS011;61478;50.820;4.330;2023-05-07T12:18:40;5.60;;;3.70;;
35522;SDS011;61478;50.820;4.330;2023-05-07T12:21:06;5.80;;;4.07;;
35522;SDS011;61478;50.820;4.330;2023-05-07T12:23:33;9.65;;;3.88;;
35522;SDS011;61478;50.820;4.330;2023-05-07T12:26:01;12.02;;;4.20;;
35522;SDS011;61478;50.820;4.330;2023-05-07T12:28:27;7.63;;;3.95;;
35522;SDS011;61478;50.820;4.330;2023-05-07T12:30:53;8.52;;;3.88;;
35522;SDS011;61478;50.820;4.330;2023-05-07T12:33:23;8.23;;;4.18;;
35522;SDS011;61478;50.820;4.330;2023-05-07T12:35:50;7.80;;;4.32;;
35522;SDS011;61478;50.820;4.330;2023-05-07T12:38:18;7.85;;;4.70;;
35522;SDS011;61478;50.820;4.330;2023-05-07T12:40:53;6.95;;;5.30;;
35522;SDS011;61478;50.820;4.330;2023-05-07T12:43:20;10.98;;;9.75;;
35522;SDS011;61478;50.820;4.330;2023-05-07T12:45:53;9.60;;;6.90;;
35522;SDS011;61478;50.820;4.330;2023-05-07T12:48:21;11.10;;;6.93;;
35522;SDS011;61478;50.820;4.330;2023-05-07T12:50:51;10.05;;;6.95;;
35522;SDS011;61478;50.820;4.330;2023-05-07T12:53:19;10.90;;;7.07;;
35522;SDS011;61478;50.820;4.330;2023-05-07T12:55:48;26.13;;;19.30;;
35522;SDS011;61478;50.820;4.330;2023-05-07T12:58:24;10.32;;;7.93;;
35522;SDS011;61478;50.820;4.330;2023-05-07T13:01:09;9.52;;;7.95;;
35522;SDS011;61478;50.820;4.330;2023-05-07T13:03:37;11.38;;;9.77;;
35522;SDS011;61478;50.820;4.330;2023-05-07T13:06:04;14.43;;;10.50;;
35522;SDS011;61478;50.820;4.330;2023-05-07T13:08:38;11.50;;;10.15;;
35522;SDS011;61478;50.820;4.330;2023-05-07T13:11:07;12.88;;;10.30;;
35522;SDS011;61478;50.820;4.330;2023-05-07T13:13:34;11.02;;;9.93;;
35522;SDS011;61478;50.820;4.330;2023-05-07T13:16:08;23.35;;;10.23;;
35522;SDS011;61478;50.820;4.330;2023-05-07T13:18:35;12.18;;;9.98;;
35522;SDS011;61478;50.820;4.330;2023-05-07T13:21:03;10.95;;;9.75;;
35522;SDS011;61478;50.820;4.330;2023-05-07T13:23:29;14.75;;;9.70;;
35522;SDS011;61478;50.820;4.330;2023-05-07T13:25:55;11.98;;;9.43;;
35522;SDS011;61478;50.820;4.330;2023-05-07T13:28:22;15.55;;;10.35;;
35522;SDS011;61478;50.820;4.330;2023-05-07T13:30:49;13.63;;;9.73;;
35522;SDS011;61478;50.820;4.330;2023-05-07T13:33:22;11.10;;;10.02;;
35522;SDS011;61478;50.820;4.330;2023-05-07T13:35:49;11.60;;;10.38;;
35522;SDS011;61478;50.820;4.330;2023-05-07T13:38:15;12.43;;;10.82;;
35522;SDS011;61478;50.820;4.330;2023-05-07T13:40:41;14.13;;;12.27;;
35522;SDS011;61478;50.820;4.330;2023-05-07T13:43:07;13.60;;;10.90;;
35522;SDS011;61478;50.820;4.330;2023-05-07T13:45:34;11.98;;;10.88;;
35522;SDS011;61478;50.820;4.330;2023-05-07T13:48:00;12.68;;;11.32;;
35522;SDS011;61478;50.820;4.330;2023-05-07T13:50:25;14.20;;;11.90;;
35522;SDS011;61478;50.820;4.330;2023-05-07T13:52:55;16.35;;;12.60;;
35522;SDS011;61478;50.820;4.330;2023-05-07T13:55:23;14.32;;;12.77;;
35522;SDS011;61478;50.820;4.330;2023-05-07T13:58:00;13.95;;;12.57;;
35522;SDS011;61478;50.820;4.330;2023-05-07T14:00:28;18.00;;;12.68;;
35522;SDS011;61478;50.820;4.330;2023-05-07T14:02:54;15.77;;;12.70;;
35522;SDS011;61478;50.820;4.330;2023-05-07T14:05:21;16.05;;;12.85;;
35522;SDS011;61478;50.820;4.330;2023-05-07T14:07:54;15.18;;;12.15;;
35522;SDS011;61478;50.820;4.330;2023-05-07T14:10:21;16.98;;;12.25;;
35522;SDS011;61478;50.820;4.330;2023-05-07T14:12:47;15.13;;;11.70;;
35522;SDS011;61478;50.820;4.330;2023-05-07T14:15:13;15.38;;;10.93;;
35522;SDS011;61478;50.820;4.330;2023-05-07T14:17:40;13.60;;;10.75;;
35522;SDS011;61478;50.820;4.330;2023-05-07T14:20:05;12.75;;;11.40;;
35522;SDS011;61478;50.820;4.330;2023-05-07T14:22:32;13.70;;;11.55;;
35522;SDS011;61478;50.820;4.330;2023-05-07T14:24:58;14.80;;;11.57;;
35522;SDS011;61478;50.820;4.330;2023-05-07T14:27:23;13.05;;;11.70;;
35522;SDS011;61478;50.820;4.330;2023-05-07T14:29:49;11.82;;;10.50;;
35522;SDS011;61478;50.820;4.330;2023-05-07T14:32:19;14.25;;;11.18;;
35522;SDS011;61478;50.820;4.330;2023-05-07T14:34:45;14.23;;;11.30;;
35522;SDS011;61478;50.820;4.330;2023-05-07T14:37:11;14.50;;;11.63;;
35522;SDS011;61478;50.820;4.330;2023-05-07T14:39:37;16.15;;;11.48;;
35522;SDS011;61478;50.820;4.330;2023-05-07T14:42:03;13.43;;;10.68;;
35522;SDS011;61478;50.820;4.330;2023-05-07T14:44:30;8.93;;;8.10;;
35522;SDS011;61478;50.820;4.330;2023-05-07T14:46:56;10.20;;;8.80;;
35522;SDS011;61478;50.820;4.330;2023-05-07T14:49:22;11.43;;;8.95;;
35522;SDS011;61478;50.820;4.330;2023-05-07T14:51:48;13.32;;;9.10;;
35522;SDS011;61478;50.820;4.330;2023-05-07T14:54:14;14.65;;;9.07;;
35522;SDS011;61478;50.820;4.330;2023-05-07T14:56:41;11.65;;;9.32;;
35522;SDS011;61478;50.820;4.330;2023-05-07T14:59:07;14.43;;;9.68;;
35522;SDS011;61478;50.820;4.330;2023-05-07T15:01:34;11.20;;;9.27;;
35522;SDS011;61478;50.820;4.330;2023-05-07T15:04:03;10.32;;;9.07;;
35522;SDS011;61478;50.820;4.330;2023-05-07T15:06:29;13.68;;;10.05;;